createdAt,value
2022-11-23T11:20:33.304Z,5.03
2022-11-23T11:23:05.215Z,6.73
2022-11-23T11:25:37.540Z,8.20
2022-11-23T11:28:20.004Z,9.20
2022-11-23T11:30:54.931Z,7.57
2022-11-23T11:33:36.173Z,15.43
2022-11-23T11:36:07.485Z,88.03
2022-11-23T11:38:38.896Z,37.73
2022-11-23T11:41:10.259Z,6.67
2022-11-23T11:43:44.094Z,5.30
2022-11-23T11:46:31.402Z,6.97
2022-11-23T11:49:07.473Z,8.37
2022-11-23T11:51:39.607Z,6.73
2022-11-23T11:54:17.804Z,6.67
2022-11-23T11:56:51.312Z,6.33
2022-11-23T11:59:28.311Z,5.17
2022-11-23T12:02:10.979Z,5.43
2022-11-23T12:04:45.023Z,4.87
2022-11-23T12:07:19.700Z,7.90
2022-11-23T12:09:53.001Z,4.93
2022-11-23T12:12:29.496Z,5.90
2022-11-23T12:14:59.464Z,6.10
2022-11-23T12:18:11.479Z,4.80
2022-11-23T12:20:52.623Z,4.97
2022-11-23T12:23:33.549Z,5.20
2022-11-23T12:26:18.904Z,4.63
2022-11-23T12:29:00.596Z,4.93
2022-11-23T12:31:42.646Z,4.23
2022-11-23T12:34:27.046Z,3.63
2022-11-23T12:37:17.886Z,2.20
2022-11-23T12:40:12.335Z,5.73
2022-11-23T12:42:44.411Z,2.97
2022-11-23T12:45:30.950Z,2.80
2022-11-23T12:48:15.813Z,6.87
2022-11-23T12:50:53.499Z,5.93
2022-11-23T12:53:38.395Z,4.60
2022-11-23T12:56:20.592Z,7.90
2022-11-23T12:58:50.643Z,5.60
2022-11-23T13:01:29.281Z,4.70
2022-11-23T13:04:36.605Z,4.83
2022-11-23T13:07:48.920Z,6.73
2022-11-23T13:10:31.610Z,6.00
2022-11-23T13:13:16.440Z,5.13
2022-11-23T13:16:16.194Z,6.30
2022-11-23T13:19:14.977Z,4.10
2022-11-23T13:21:46.298Z,5.00
2022-11-23T13:24:36.827Z,4.87
2022-11-23T13:27:43.268Z,6.20
2022-11-23T13:30:26.094Z,6.00
2022-11-23T13:33:34.477Z,6.87
2022-11-23T13:36:11.430Z,8.50
2022-11-23T13:38:46.258Z,7.63
2022-11-23T13:41:57.669Z,6.17
2022-11-23T13:44:31.137Z,6.27
2022-11-23T13:47:19.466Z,6.03
2022-11-23T13:49:50.626Z,6.73
2022-11-23T13:52:34.898Z,7.40
2022-11-23T13:55:21.001Z,6.93
2022-11-23T13:58:23.195Z,7.10
2022-11-23T14:00:55.014Z,7.20
2022-11-23T14:03:50.229Z,7.20
2022-11-23T14:06:32.757Z,7.53
2022-11-23T14:09:05.889Z,7.47
2022-11-23T14:11:43.708Z,7.27
2022-11-23T14:14:21.675Z,9.83
2022-11-23T14:17:09.597Z,79.17
2022-11-23T14:19:50.613Z,23.67
2022-11-23T14:22:30.498Z,19.03
2022-11-23T14:25:14.719Z,12.97
2022-11-23T14:27:54.833Z,33.13
2022-11-23T14:30:34.102Z,26.47
2022-11-23T14:33:23.657Z,16.20
2022-11-23T14:36:02.846Z,16.73
2022-11-23T14:38:51.931Z,16.70
2022-11-23T14:41:23.639Z,26.87
2022-11-23T14:43:53.734Z,35.20
2022-11-23T14:46:25.803Z,34.97
2022-11-23T14:49:16.943Z,29.70
2022-11-23T14:51:46.102Z,27.47
2022-11-23T14:54:17.889Z,27.37
2022-11-23T14:56:49.018Z,23.47
2022-11-23T14:59:24.691Z,18.23
2022-11-23T15:01:57.684Z,18.37
2022-11-23T15:04:34.728Z,18.07
2022-11-23T15:07:26.540Z,20.47
2022-11-23T15:10:05.154Z,21.67
2022-11-23T15:12:45.045Z,16.87
2022-11-23T15:15:25.165Z,14.87
2022-11-23T15:17:58.070Z,12.50
2022-11-23T15:20:54.595Z,10.83
2022-11-23T15:23:38.885Z,17.37
2022-11-23T15:26:42.063Z,14.30
2022-11-23T15:29:33.939Z,21.90
2022-11-23T15:32:29.314Z,39.57
2022-11-23T15:35:16.165Z,35.30
2022-11-23T15:37:49.298Z,32.30
2022-11-23T15:40:20.605Z,30.97
2022-11-23T15:42:52.143Z,30.80
2022-11-23T15:45:38.687Z,26.63
2022-11-23T15:48:13.543Z,19.37
2022-11-23T15:50:55.090Z,12.70
2022-11-23T15:53:29.316Z,16.70
2022-11-23T15:56:02.840Z,9.90
2022-11-23T15:58:32.692Z,11.43
2022-11-23T16:01:08.757Z,15.67
2022-11-23T16:03:42.866Z,11.83
2022-11-23T16:06:26.566Z,8.70
2022-11-23T16:08:57.274Z,10.57
2022-11-23T16:11:32.529Z,8.73
2022-11-23T16:14:15.819Z,7.60
2022-11-23T16:16:46.424Z,7.10
2022-11-23T16:19:28.436Z,5.67
2022-11-23T16:22:02.849Z,8.20
2022-11-23T16:24:37.137Z,6.50
2022-11-23T16:27:14.748Z,13.73
2022-11-23T16:29:44.017Z,25.97
2022-11-23T16:32:25.564Z,15.37
2022-11-23T16:34:55.760Z,3.27
2022-11-23T16:37:26.939Z,5.20
2022-11-23T16:39:57.484Z,9.20
2022-11-23T16:42:27.370Z,7.67
2022-11-23T16:44:56.382Z,3.50
2022-11-23T16:47:27.288Z,6.37
2022-11-23T16:50:14.964Z,4.23
2022-11-23T16:52:44.496Z,3.50
2022-11-23T16:55:15.225Z,2.93
2022-11-23T16:57:45.311Z,3.63
2022-11-23T17:00:18.079Z,3.50
2022-11-23T17:02:47.102Z,4.37
2022-11-23T17:05:17.780Z,5.60
2022-11-23T17:07:46.780Z,4.73
2022-11-23T17:10:18.105Z,4.10
2022-11-23T17:12:52.116Z,16.77
2022-11-23T17:15:22.953Z,20.40
2022-11-23T17:17:52.185Z,18.47
2022-11-23T17:20:21.488Z,6.07
2022-11-23T17:22:52.218Z,6.10
2022-11-23T17:25:22.775Z,5.60
2022-11-23T17:27:52.070Z,7.03
2022-11-23T17:30:22.986Z,6.17
2022-11-23T17:32:52.156Z,4.97
2022-11-23T17:35:21.796Z,4.27
2022-11-23T17:37:50.716Z,4.07
2022-11-23T17:40:22.719Z,6.83
2022-11-23T17:42:51.505Z,9.80
2022-11-23T17:45:20.755Z,15.13
2022-11-23T17:47:50.513Z,10.00
2022-11-23T17:50:20.567Z,21.30
2022-11-23T17:52:50.856Z,18.77
2022-11-23T17:55:19.959Z,17.33
2022-11-23T17:57:50.201Z,17.77
2022-11-23T18:00:21.806Z,17.70
2022-11-23T18:02:52.243Z,16.47
2022-11-23T18:05:22.151Z,17.37
2022-11-23T18:07:51.616Z,28.83
2022-11-23T18:10:20.768Z,30.50
2022-11-23T18:12:51.375Z,35.83
2022-11-23T18:15:20.468Z,30.37
2022-11-23T18:17:49.606Z,39.63
2022-11-23T18:20:18.541Z,38.17
2022-11-23T18:22:47.751Z,30.77
2022-11-23T18:25:17.500Z,25.10
2022-11-23T18:27:46.616Z,27.60
2022-11-23T18:30:18.032Z,32.00
2022-11-23T18:32:47.168Z,25.90
2022-11-23T18:35:15.941Z,24.57
2022-11-23T18:37:45.378Z,19.77
2022-11-23T18:40:15.559Z,25.83
2022-11-23T18:42:44.971Z,26.57
2022-11-23T18:45:14.006Z,22.60
2022-11-23T18:47:44.315Z,22.87
2022-11-23T18:50:13.473Z,29.87
2022-11-23T18:52:42.247Z,39.53
2022-11-23T18:55:11.413Z,44.17
2022-11-23T18:57:40.327Z,44.13
2022-11-23T19:00:12.871Z,51.90
2022-11-23T19:02:41.703Z,44.20
2022-11-23T19:05:12.120Z,42.40
2022-11-23T19:07:41.084Z,41.10
2022-11-23T19:10:10.863Z,50.63
2022-11-23T19:12:39.867Z,45.40
2022-11-23T19:15:10.001Z,42.40
2022-11-23T19:17:39.565Z,41.10
2022-11-23T19:20:10.159Z,35.83
2022-11-23T19:22:40.639Z,38.20
2022-11-23T19:25:10.881Z,45.97
2022-11-23T19:27:40.806Z,34.40
2022-11-23T19:30:11.146Z,24.63
2022-11-23T19:33:00.175Z,24.83
2022-11-23T19:35:29.904Z,24.07
2022-11-23T19:38:00.349Z,20.87
2022-11-23T19:40:30.013Z,19.20
